createdAt,value
2023-04-21T00:02:05.300Z,6.33
2023-04-21T00:04:33.672Z,6.19
2023-04-21T00:07:04.866Z,6.01
2023-04-21T00:09:32.104Z,5.89
2023-04-21T00:11:59.858Z,5.87
2023-04-21T00:14:27.436Z,5.63
2023-04-21T00:16:54.838Z,5.71
2023-04-21T00:19:24.432Z,5.98
2023-04-21T00:21:52.214Z,5.79
2023-04-21T00:24:19.722Z,5.54
2023-04-21T00:26:47.208Z,5.49
2023-04-21T00:29:19.095Z,5.49
2023-04-21T00:31:46.825Z,5.37
2023-04-21T00:34:15.217Z,5.24
2023-04-21T00:36:42.802Z,5.15
2023-04-21T00:39:10.132Z,5.31
2023-04-21T00:41:38.961Z,5.53
2023-04-21T00:44:07.575Z,5.60
2023-04-21T00:46:36.125Z,5.64
2023-04-21T00:49:08.218Z,5.72
2023-04-21T00:51:37.779Z,5.67
2023-04-21T00:54:06.766Z,5.58
2023-04-21T00:56:35.698Z,5.43
2023-04-21T00:59:04.067Z,5.37
2023-04-21T01:01:34.583Z,5.36
2023-04-21T01:04:04.210Z,5.44
2023-04-21T01:06:32.634Z,5.38
2023-04-21T01:09:00.468Z,5.55
2023-04-21T01:11:30.191Z,5.41
2023-04-21T01:13:57.658Z,5.58
2023-04-21T01:16:25.146Z,5.51
2023-04-21T01:18:53.708Z,5.39
2023-04-21T01:21:29.282Z,5.24
2023-04-21T01:24:09.011Z,4.98
2023-04-21T01:26:36.365Z,5.03
2023-04-21T01:29:04.938Z,5.12
2023-04-21T01:31:32.496Z,5.11
2023-04-21T01:34:05.132Z,4.98
2023-04-21T01:36:33.542Z,4.89
2023-04-21T01:39:01.950Z,4.61
2023-04-21T01:41:29.336Z,4.75
2023-04-21T01:43:57.147Z,4.63
2023-04-21T01:46:28.002Z,4.30
2023-04-21T01:49:16.182Z,4.22
2023-04-21T01:52:00.187Z,4.08
2023-04-21T01:54:30.688Z,4.03
2023-04-21T02:00:49.303Z,4.27
2023-04-21T02:07:54.593Z,4.18
2023-04-21T02:10:22.170Z,4.14
2023-04-21T02:12:49.502Z,4.18
2023-04-21T02:15:16.952Z,4.26
2023-04-21T02:17:45.221Z,3.98
2023-04-21T02:20:14.021Z,4.19
2023-04-21T02:22:41.441Z,4.10
2023-04-21T02:25:09.540Z,4.05
2023-04-21T02:27:42.389Z,4.19
2023-04-21T02:30:11.275Z,4.22
2023-04-21T02:32:44.565Z,4.07
2023-04-21T02:35:13.331Z,3.99
2023-04-21T02:37:40.457Z,4.07
2023-04-21T02:40:09.643Z,4.14
2023-04-21T02:42:37.878Z,4.09
2023-04-21T02:45:05.722Z,3.83
2023-04-21T02:47:33.813Z,3.65
2023-04-21T02:50:01.260Z,3.51
2023-04-21T02:52:28.769Z,3.49
2023-04-21T02:54:56.136Z,3.37
2023-04-21T02:57:23.676Z,3.44
2023-04-21T02:59:51.733Z,3.71
2023-04-21T03:02:19.184Z,3.68
2023-04-21T03:04:46.513Z,3.76
2023-04-21T03:07:14.509Z,3.52
2023-04-21T03:09:42.009Z,3.37
2023-04-21T03:12:09.505Z,3.30
2023-04-21T03:14:36.940Z,3.36
2023-04-21T03:17:04.397Z,3.41
2023-04-21T03:19:31.771Z,3.53
2023-04-21T03:21:59.294Z,3.61
2023-04-21T03:24:26.657Z,3.53
2023-04-21T03:26:54.145Z,3.55
2023-04-21T03:29:21.836Z,3.40
2023-04-21T03:31:50.119Z,3.26
2023-04-21T03:34:17.560Z,3.21
2023-04-21T03:36:45.028Z,3.32
2023-04-21T03:39:19.676Z,3.28
2023-04-21T03:41:49.697Z,3.51
2023-04-21T03:44:17.148Z,3.44
2023-04-21T03:46:44.608Z,3.47
2023-04-21T03:49:12.136Z,3.47
2023-04-21T03:51:39.410Z,3.48
2023-04-21T03:54:07.392Z,3.54
2023-04-21T03:56:34.888Z,3.58
2023-04-21T03:59:03.449Z,3.51
2023-04-21T04:01:31.519Z,3.52
2023-04-21T04:03:58.928Z,3.62
2023-04-21T04:06:26.917Z,3.53
2023-04-21T04:08:55.397Z,3.68
2023-04-21T04:11:22.924Z,3.84
2023-04-21T04:13:50.594Z,3.79
2023-04-21T04:16:18.495Z,3.51
2023-04-21T04:18:46.001Z,3.14
2023-04-21T04:21:13.177Z,3.14
2023-04-21T04:23:40.708Z,3.06
2023-04-21T04:26:09.673Z,3.06
2023-04-21T04:28:37.543Z,3.19
2023-04-21T04:31:05.761Z,3.42
2023-04-21T04:33:34.083Z,3.45
2023-04-21T04:36:02.211Z,3.38
2023-04-21T04:38:30.622Z,3.56
2023-04-21T04:40:59.196Z,3.62
2023-04-21T04:43:26.519Z,3.65
2023-04-21T04:45:54.076Z,3.62
2023-04-21T04:48:24.724Z,3.64
2023-04-21T04:50:52.954Z,3.65
2023-04-21T04:53:20.476Z,3.86
2023-04-21T04:55:48.034Z,3.89
2023-04-21T04:58:17.420Z,3.96
2023-04-21T05:00:44.786Z,4.11
2023-04-21T05:03:12.437Z,4.23
2023-04-21T05:05:39.540Z,4.39
2023-04-21T05:08:06.639Z,4.22
2023-04-21T05:10:34.115Z,4.21
2023-04-21T05:13:01.642Z,4.33
2023-04-21T05:15:29.211Z,4.52
2023-04-21T05:17:56.697Z,4.46
2023-04-21T05:20:24.182Z,4.50
2023-04-21T05:22:51.172Z,4.63
2023-04-21T05:25:18.422Z,4.84
2023-04-21T05:27:45.887Z,4.96
2023-04-21T05:30:13.377Z,5.06
2023-04-21T05:32:41.791Z,5.33
2023-04-21T05:35:09.328Z,5.53
2023-04-21T05:37:36.888Z,5.63
2023-04-21T05:40:06.919Z,5.79
2023-04-21T05:42:34.176Z,5.97
2023-04-21T05:45:01.666Z,6.16
2023-04-21T05:47:29.098Z,6.30
2023-04-21T05:49:56.571Z,6.49
2023-04-21T05:52:24.000Z,6.63
2023-04-21T05:54:51.442Z,6.76
2023-04-21T05:57:18.895Z,6.87
2023-04-21T05:59:46.400Z,7.04
2023-04-21T06:02:13.993Z,7.24
2023-04-21T06:04:41.451Z,7.35
2023-04-21T06:07:13.244Z,7.56
2023-04-21T06:09:41.725Z,7.67
2023-04-21T06:12:09.298Z,7.84
2023-04-21T06:14:36.943Z,8.01
2023-04-21T06:17:04.161Z,8.19
2023-04-21T06:19:31.598Z,8.30
2023-04-21T06:21:59.193Z,8.48
2023-04-21T06:24:26.590Z,8.66
2023-04-21T06:26:55.162Z,8.76
2023-04-21T06:29:22.508Z,8.90
2023-04-21T06:31:56.593Z,9.05
2023-04-21T06:34:24.081Z,9.15
2023-04-21T06:36:51.604Z,9.22
2023-04-21T06:39:18.965Z,9.36
2023-04-21T06:41:46.484Z,9.56
2023-04-21T06:44:14.943Z,9.79
2023-04-21T06:46:42.526Z,9.99
2023-04-21T06:49:09.981Z,10.12
2023-04-21T06:51:38.498Z,10.32
2023-04-21T06:54:07.880Z,10.48
2023-04-21T06:56:36.610Z,10.58
2023-04-21T06:59:03.796Z,10.58
2023-04-21T07:01:31.394Z,10.72
2023-04-21T07:04:07.159Z,10.83
2023-04-21T07:06:39.478Z,10.98
2023-04-21T07:09:06.878Z,11.13
2023-04-21T07:11:34.398Z,11.32
2023-04-21T07:14:02.587Z,11.41
2023-04-21T07:16:31.224Z,11.48
2023-04-21T07:18:58.499Z,11.59
2023-04-21T07:21:25.788Z,11.68
2023-04-21T07:23:53.125Z,11.72
2023-04-21T07:26:20.235Z,11.84
2023-04-21T07:28:47.631Z,11.75
2023-04-21T07:31:14.723Z,11.87
2023-04-21T07:33:43.017Z,11.95
2023-04-21T07:36:10.925Z,12.01
2023-04-21T07:38:38.670Z,12.14
2023-04-21T07:41:07.174Z,12.12
2023-04-21T07:43:34.417Z,12.25
2023-04-21T07:46:01.978Z,12.36
2023-04-21T07:48:29.365Z,12.50
2023-04-21T07:51:00.803Z,12.60
2023-04-21T07:53:28.489Z,12.61
2023-04-21T07:55:55.827Z,12.74
2023-04-21T07:58:23.524Z,12.86
2023-04-21T08:00:51.776Z,12.89
2023-04-21T08:03:20.382Z,13.00
2023-04-21T08:05:49.455Z,13.08
2023-04-21T08:08:20.581Z,13.18
2023-04-21T08:10:49.221Z,13.22
2023-04-21T08:13:16.354Z,13.41
2023-04-21T08:15:58.214Z,13.64
2023-04-21T08:18:26.620Z,13.89
2023-04-21T08:20:57.725Z,13.91
2023-04-21T08:23:25.082Z,14.05
2023-04-21T08:25:52.453Z,14.20
2023-04-21T08:28:19.956Z,14.43
2023-04-21T08:30:47.412Z,14.69
2023-04-21T08:33:14.928Z,14.88
2023-04-21T08:35:54.883Z,15.06
2023-04-21T08:38:29.859Z,15.30
2023-04-21T08:41:00.250Z,15.53
2023-04-21T08:43:29.636Z,15.70
2023-04-21T08:45:58.287Z,15.86
2023-04-21T08:48:34.145Z,15.95
2023-04-21T08:51:02.633Z,16.02
2023-04-21T08:53:30.843Z,16.06
2023-04-21T08:56:10.175Z,16.25
2023-04-21T08:58:39.050Z,16.43
2023-04-21T09:01:24.952Z,16.59
2023-04-21T09:03:54.539Z,16.82
2023-04-21T09:06:22.183Z,17.05
2023-04-21T09:08:56.778Z,17.25
2023-04-21T09:11:23.955Z,17.46
2023-04-21T09:13:51.415Z,17.59
2023-04-21T09:16:22.004Z,17.62
2023-04-21T09:18:50.746Z,17.70
2023-04-21T09:21:20.176Z,17.76
2023-04-21T09:23:52.965Z,17.97
2023-04-21T09:26:24.451Z,18.21
2023-04-21T09:28:53.382Z,18.40
2023-04-21T09:31:25.721Z,18.52
2023-04-21T09:34:01.191Z,18.66
2023-04-21T09:36:31.002Z,18.79
2023-04-21T09:41:33.325Z,19.11
2023-04-21T09:44:02.125Z,19.26
2023-04-21T09:46:38.774Z,19.50
2023-04-21T09:49:07.381Z,19.74
2023-04-21T09:54:28.320Z,20.10
2023-04-21T09:56:59.841Z,20.25
2023-04-21T09:59:45.551Z,20.29
2023-04-21T10:02:21.455Z,20.56
2023-04-21T10:04:49.427Z,20.82
2023-04-21T10:07:17.021Z,21.16
2023-04-21T10:09:49.391Z,21.36
2023-04-21T10:12:20.139Z,21.51
2023-04-21T10:14:54.134Z,21.75
2023-04-21T10:17:26.239Z,21.89
2023-04-21T10:19:57.738Z,21.53
2023-04-21T10:22:30.402Z,21.59
2023-04-21T10:25:00.115Z,21.99
2023-04-21T10:27:35.897Z,22.15
2023-04-21T10:30:29.212Z,22.19
2023-04-21T10:33:06.643Z,22.72
2023-04-21T10:36:03.455Z,23.14
2023-04-21T10:38:44.575Z,23.39
2023-04-21T10:41:28.781Z,23.15
2023-04-21T10:44:14.159Z,23.63
2023-04-21T10:46:49.599Z,23.97
2023-04-21T10:49:38.853Z,24.45
2023-04-21T10:52:12.497Z,24.71
2023-04-21T10:54:48.550Z,25.09
2023-04-21T10:57:20.815Z,25.24
2023-04-21T10:59:55.555Z,25.33
2023-04-21T11:02:23.200Z,25.20
2023-04-21T11:04:55.196Z,24.91
2023-04-21T11:07:26.420Z,24.57
2023-04-21T11:10:02.394Z,24.20
2023-04-21T11:12:48.396Z,23.95
2023-04-21T11:15:17.705Z,23.83
2023-04-21T11:17:47.392Z,23.72
2023-04-21T11:20:14.634Z,23.78
2023-04-21T11:22:43.067Z,23.85
2023-04-21T11:25:18.849Z,23.82
2023-04-21T11:27:56.940Z,23.56
2023-04-21T11:30:36.104Z,23.57
2023-04-21T11:33:04.529Z,23.66
2023-04-21T11:35:32.410Z,24.10
2023-04-21T11:38:06.136Z,24.52
2023-04-21T11:40:55.307Z,24.75
2023-04-21T11:43:22.901Z,25.66
2023-04-21T11:45:51.559Z,26.33
2023-04-21T11:48:20.032Z,26.21
2023-04-21T11:50:51.514Z,25.91
2023-04-21T11:53:19.769Z,25.81
2023-04-21T11:55:47.270Z,26.10
2023-04-21T11:58:21.668Z,26.14
2023-04-21T12:00:51.476Z,25.73
2023-04-21T12:03:21.093Z,25.50
2023-04-21T12:05:48.474Z,24.76
2023-04-21T12:08:16.776Z,24.29
2023-04-21T12:10:49.083Z,23.93
2023-04-21T12:13:28.224Z,23.85
2023-04-21T12:15:55.786Z,23.70
2023-04-21T12:18:28.622Z,23.63
2023-04-21T12:20:55.751Z,23.85
2023-04-21T12:23:22.829Z,23.74
2023-04-21T12:25:51.616Z,23.62
2023-04-21T12:28:19.069Z,23.93
2023-04-21T12:30:46.366Z,24.77
2023-04-21T12:33:13.659Z,25.27
2023-04-21T12:35:41.501Z,25.73
2023-04-21T12:38:08.789Z,26.16
2023-04-21T12:40:36.218Z,26.62
2023-04-21T12:43:03.895Z,26.78
2023-04-21T12:45:32.838Z,26.40
2023-04-21T12:48:00.644Z,26.17
2023-04-21T12:50:28.270Z,26.24
2023-04-21T12:52:55.637Z,26.63
2023-04-21T12:55:23.911Z,27.06
2023-04-21T12:57:53.152Z,27.54
2023-04-21T13:00:21.079Z,27.88
2023-04-21T13:02:49.791Z,28.43
2023-04-21T13:05:17.143Z,28.86
2023-04-21T13:07:44.581Z,28.88
2023-04-21T13:10:14.181Z,29.01
2023-04-21T13:12:43.473Z,28.87
2023-04-21T13:15:11.318Z,29.24
2023-04-21T13:17:38.913Z,28.88
2023-04-21T13:20:07.576Z,28.96
2023-04-21T13:22:36.156Z,29.04
2023-04-21T13:25:04.792Z,28.74
2023-04-21T13:27:33.700Z,28.29
2023-04-21T13:30:01.509Z,27.62
2023-04-21T13:32:30.907Z,27.12
2023-04-21T13:34:58.580Z,26.34
2023-04-21T13:37:27.806Z,25.24
2023-04-21T13:39:55.270Z,24.72
2023-04-21T13:42:22.709Z,24.49
2023-04-21T13:44:50.233Z,24.26
2023-04-21T13:47:18.990Z,24.07
2023-04-21T13:49:47.096Z,24.30
2023-04-21T13:52:14.566Z,25.01
2023-04-21T13:54:43.043Z,25.50
2023-04-21T13:57:11.004Z,26.15
2023-04-21T13:59:39.188Z,26.88
2023-04-21T14:02:06.538Z,27.31
2023-04-21T14:04:33.977Z,27.74
2023-04-21T14:07:04.823Z,27.98
2023-04-21T14:09:32.537Z,28.21
2023-04-21T14:11:59.900Z,28.74
2023-04-21T14:14:37.872Z,28.82
2023-04-21T14:17:07.707Z,28.49
2023-04-21T14:19:36.117Z,28.66
2023-04-21T14:22:05.209Z,29.00
2023-04-21T14:24:33.605Z,29.35
2023-04-21T14:27:07.296Z,29.73
2023-04-21T14:29:35.087Z,29.92
2023-04-21T14:32:02.679Z,28.94
2023-04-21T14:34:32.224Z,28.76
2023-04-21T14:37:00.884Z,28.92
2023-04-21T14:39:30.805Z,28.27
2023-04-21T14:41:58.206Z,28.72
2023-04-21T14:44:27.702Z,28.65
2023-04-21T14:47:06.123Z,27.98
2023-04-21T14:49:39.465Z,27.28
2023-04-21T14:52:07.489Z,26.72
2023-04-21T14:54:35.039Z,26.41
2023-04-21T14:57:16.881Z,26.14
2023-04-21T14:59:49.618Z,25.78
2023-04-21T15:02:17.199Z,25.78
2023-04-21T15:04:45.157Z,26.23
2023-04-21T15:07:12.954Z,26.18
2023-04-21T15:09:41.496Z,26.29
2023-04-21T15:12:08.773Z,26.66
2023-04-21T15:14:36.302Z,26.54
2023-04-21T15:17:04.036Z,26.67
2023-04-21T15:19:32.928Z,26.72
2023-04-21T15:22:00.758Z,26.72
2023-04-21T15:24:28.059Z,27.05
2023-04-21T15:26:55.749Z,27.18
2023-04-21T15:29:24.005Z,27.49
2023-04-21T15:31:57.744Z,27.55
2023-04-21T15:34:27.096Z,27.55
2023-04-21T15:36:55.013Z,27.66
2023-04-21T15:39:23.550Z,27.73
2023-04-21T15:41:55.265Z,27.85
2023-04-21T15:44:23.592Z,27.38
2023-04-21T15:46:51.398Z,27.03
2023-04-21T15:49:20.026Z,26.78
2023-04-21T15:51:47.356Z,26.76
2023-04-21T15:54:16.401Z,26.89
2023-04-21T15:56:44.043Z,27.01
2023-04-21T15:59:11.332Z,27.02
2023-04-21T16:01:40.101Z,27.17
2023-04-21T16:04:08.694Z,27.18
2023-04-21T16:06:48.770Z,27.24
2023-04-21T16:09:22.945Z,27.22
2023-04-21T16:11:51.762Z,27.07
2023-04-21T16:14:19.562Z,26.96
2023-04-21T16:16:47.274Z,26.75
2023-04-21T16:19:16.799Z,26.62
2023-04-21T16:21:44.159Z,25.98
2023-04-21T16:24:12.758Z,25.91
2023-04-21T16:26:41.662Z,25.76
2023-04-21T16:29:09.173Z,25.70
2023-04-21T16:31:37.773Z,25.58
2023-04-21T16:34:06.177Z,25.34
2023-04-21T16:36:33.755Z,25.14
2023-04-21T16:39:01.181Z,25.05
2023-04-21T16:41:32.486Z,24.90
2023-04-21T16:44:00.042Z,24.62
2023-04-21T16:46:27.422Z,24.32
2023-04-21T16:48:57.085Z,23.99
2023-04-21T16:51:26.347Z,23.85
2023-04-21T16:53:54.960Z,23.62
2023-04-21T16:56:23.004Z,23.29
2023-04-21T16:58:53.444Z,23.12
2023-04-21T17:01:20.945Z,22.86
2023-04-21T17:03:49.610Z,22.66
2023-04-21T17:06:21.477Z,22.50
2023-04-21T17:08:50.038Z,22.30
2023-04-21T17:11:17.427Z,22.06
2023-04-21T17:13:44.760Z,21.93
2023-04-21T17:16:12.224Z,21.70
2023-04-21T17:18:39.770Z,21.56
2023-04-21T17:21:07.530Z,21.37
2023-04-21T17:23:34.676Z,21.20
2023-04-21T17:26:04.138Z,21.03
2023-04-21T17:28:32.850Z,20.83
2023-04-21T17:31:13.839Z,20.65
2023-04-21T17:33:42.941Z,20.40
2023-04-21T17:36:10.456Z,20.23
2023-04-21T17:38:38.098Z,19.99
2023-04-21T17:41:07.147Z,19.83
2023-04-21T17:43:34.930Z,19.64
2023-04-21T17:46:02.368Z,19.49
2023-04-21T17:48:29.735Z,19.32
2023-04-21T17:50:57.145Z,19.25
2023-04-21T17:53:24.658Z,19.11
2023-04-21T17:55:52.258Z,18.87
2023-04-21T17:58:19.834Z,18.75
2023-04-21T18:00:48.860Z,18.65
2023-04-21T18:03:18.176Z,18.48
2023-04-21T18:05:45.522Z,18.29
2023-04-21T18:08:15.678Z,18.17
2023-04-21T18:10:43.010Z,17.91
2023-04-21T18:13:10.864Z,17.90
2023-04-21T18:15:39.673Z,17.77
2023-04-21T18:18:09.351Z,17.64
2023-04-21T18:20:39.421Z,17.58
2023-04-21T18:23:08.645Z,17.44
2023-04-21T18:25:42.641Z,17.28
2023-04-21T18:28:14.698Z,17.23
2023-04-21T18:30:43.010Z,17.05
2023-04-21T18:33:11.911Z,17.01
2023-04-21T18:35:42.383Z,16.92
2023-04-21T18:38:12.527Z,16.58
2023-04-21T18:40:41.451Z,16.32
2023-04-21T18:43:11.205Z,15.96
2023-04-21T18:45:40.409Z,15.64
2023-04-21T18:48:09.168Z,15.43
2023-04-21T18:50:42.678Z,15.20
2023-04-21T18:53:14.388Z,14.77
2023-04-21T18:55:43.211Z,14.49
2023-04-21T18:58:11.292Z,14.13
2023-04-21T19:00:39.482Z,13.90
2023-04-21T19:03:08.276Z,13.72
2023-04-21T19:05:40.873Z,13.57
2023-04-21T19:08:10.713Z,13.61
2023-04-21T19:10:39.232Z,13.64
2023-04-21T19:13:08.710Z,13.62
2023-04-21T19:15:37.141Z,13.52
2023-04-21T19:18:04.796Z,13.37
2023-04-21T19:20:32.730Z,13.39
2023-04-21T19:23:00.919Z,13.21
2023-04-21T19:25:28.717Z,13.19
2023-04-21T19:27:56.618Z,13.15
2023-04-21T19:30:24.962Z,13.10
2023-04-21T19:32:58.703Z,13.05
2023-04-21T19:35:26.630Z,12.85
2023-04-21T19:37:54.824Z,12.72
2023-04-21T19:40:29.995Z,12.47
2023-04-21T19:43:02.315Z,12.41
2023-04-21T19:45:30.609Z,12.04
2023-04-21T19:48:00.400Z,12.00
2023-04-21T19:50:28.917Z,11.86
2023-04-21T19:52:59.592Z,11.12
2023-04-21T19:55:27.999Z,11.14
2023-04-21T19:58:02.008Z,11.33
2023-04-21T20:00:30.617Z,11.35
2023-04-21T20:02:58.929Z,11.23
2023-04-21T20:05:26.635Z,11.25
2023-04-21T20:07:54.697Z,11.23
2023-04-21T20:10:22.924Z,11.26
2023-04-21T20:12:51.900Z,11.25
2023-04-21T20:15:20.513Z,11.18
2023-04-21T20:17:49.802Z,11.15
2023-04-21T20:20:18.417Z,10.97
2023-04-21T20:22:48.171Z,10.99
2023-04-21T20:25:16.271Z,11.04
2023-04-21T20:27:45.239Z,11.06
2023-04-21T20:30:13.099Z,11.16
2023-04-21T20:32:40.397Z,11.12
2023-04-21T20:35:12.180Z,11.00
2023-04-21T20:37:40.678Z,10.98
2023-04-21T20:40:09.272Z,10.92
2023-04-21T20:42:36.832Z,10.45
2023-04-21T20:45:06.544Z,10.33
2023-04-21T20:47:34.436Z,10.17
2023-04-21T20:50:04.937Z,10.52
2023-04-21T20:52:32.464Z,10.56
2023-04-21T20:54:59.943Z,10.42
2023-04-21T20:57:28.297Z,10.32
2023-04-21T20:59:56.839Z,9.90
2023-04-21T21:02:25.122Z,9.66
2023-04-21T21:04:52.596Z,9.56
2023-04-21T21:07:20.067Z,9.66
2023-04-21T21:09:47.540Z,9.57
2023-04-21T21:12:14.988Z,9.53
2023-04-21T21:14:42.512Z,9.49
2023-04-21T21:17:13.182Z,9.25
2023-04-21T21:19:41.909Z,8.81
2023-04-21T21:22:09.656Z,8.79
2023-04-21T21:24:36.907Z,8.94
2023-04-21T21:27:04.452Z,9.14
2023-04-21T21:29:31.764Z,9.29
2023-04-21T21:32:00.262Z,9.43
2023-04-21T21:34:27.795Z,9.49
2023-04-21T21:36:55.198Z,9.53
2023-04-21T21:39:22.661Z,9.51
2023-04-21T21:41:51.093Z,9.54
2023-04-21T21:44:19.677Z,9.65
2023-04-21T21:46:48.124Z,9.61
2023-04-21T21:49:22.774Z,9.65
2023-04-21T21:51:51.178Z,9.60
2023-04-21T21:54:19.593Z,9.57
2023-04-21T21:56:48.934Z,9.47
2023-04-21T21:59:16.765Z,9.26
2023-04-21T22:01:45.300Z,8.94
2023-04-21T22:04:14.752Z,8.82
2023-04-21T22:06:42.707Z,8.08
2023-04-21T22:09:10.144Z,8.01
2023-04-21T22:11:37.673Z,8.23
2023-04-21T22:14:21.155Z,7.99
2023-04-21T22:17:03.269Z,7.98
2023-04-21T22:19:31.525Z,8.07
2023-04-21T22:21:59.067Z,7.96
2023-04-21T22:24:32.092Z,7.55
2023-04-21T22:27:05.880Z,7.40
2023-04-21T22:29:33.192Z,7.48
2023-04-21T22:32:00.809Z,7.75
2023-04-21T22:34:34.246Z,7.73
2023-04-21T22:37:02.592Z,7.77
2023-04-21T22:39:30.368Z,7.74
2023-04-21T22:41:57.966Z,7.77
2023-04-21T22:44:25.704Z,7.58
2023-04-21T22:46:55.080Z,7.46
2023-04-21T22:49:23.027Z,7.44
2023-04-21T22:51:56.638Z,7.36
2023-04-21T22:54:24.997Z,7.14
2023-04-21T22:56:52.244Z,7.22
2023-04-21T22:59:20.623Z,7.39
2023-04-21T23:01:49.132Z,7.24
2023-04-21T23:04:16.651Z,7.04
2023-04-21T23:06:44.108Z,7.14
2023-04-21T23:09:11.514Z,7.16
2023-04-21T23:11:39.907Z,6.97
2023-04-21T23:14:07.463Z,6.92
2023-04-21T23:16:37.314Z,6.85
2023-04-21T23:19:04.376Z,6.72
2023-04-21T23:21:32.057Z,6.39
2023-04-21T23:24:00.480Z,6.10
2023-04-21T23:26:27.829Z,6.13
2023-04-21T23:28:55.276Z,6.29
2023-04-21T23:31:22.811Z,6.38
2023-04-21T23:33:52.217Z,6.68
2023-04-21T23:36:20.790Z,6.60
2023-04-21T23:38:48.226Z,6.44
2023-04-21T23:41:16.743Z,6.26
2023-04-21T23:43:45.306Z,6.15
2023-04-21T23:46:19.799Z,5.76
2023-04-21T23:48:47.136Z,5.65
2023-04-21T23:51:14.779Z,5.70
2023-04-21T23:53:42.101Z,5.98
2023-04-21T23:56:09.543Z,6.04
2023-04-21T23:58:37.033Z,5.87
